sensor_id;sensor_type;location;lat;lon;timestamp;P1;durP1;ratioP1;P2;durP2;ratioP2
27706;SDS011;36332;51.384;0.040;2024-03-06T00:00:11;38.72;;;21.92;;
27706;SDS011;36332;51.384;0.040;2024-03-06T00:02:40;45.83;;;23.48;;
27706;SDS011;36332;51.384;0.040;2024-03-06T00:05:08;39.30;;;22.70;;
27706;SDS011;36332;51.384;0.040;2024-03-06T00:07:36;39.28;;;21.73;;
27706;SDS011;36332;51.384;0.040;2024-03-06T00:10:04;43.10;;;23.75;;
27706;SDS011;36332;51.384;0.040;2024-03-06T00:12:33;40.20;;;23.20;;
27706;SDS011;36332;51.384;0.040;2024-03-06T00:15:02;43.80;;;23.08;;
27706;SDS011;36332;51.384;0.040;2024-03-06T00:17:30;43.53;;;24.02;;
27706;SDS011;36332;51.384;0.040;2024-03-06T00:19:58;39.42;;;23.52;;
27706;SDS011;36332;51.384;0.040;2024-03-06T00:22:26;43.08;;;22.63;;
27706;SDS011;36332;51.384;0.040;2024-03-06T00:24:54;43.70;;;24.55;;
27706;SDS011;36332;51.384;0.040;2024-03-06T00:27:22;41.08;;;23.80;;
27706;SDS011;36332;51.384;0.040;2024-03-06T00:29:49;47.35;;;25.05;;
27706;SDS011;36332;51.384;0.040;2024-03-06T00:32:17;51.60;;;26.90;;
27706;SDS011;36332;51.384;0.040;2024-03-06T00:34:45;43.08;;;23.38;;
27706;SDS011;36332;51.384;0.040;2024-03-06T00:37:13;47.72;;;27.58;;
27706;SDS011;36332;51.384;0.040;2024-03-06T00:39:41;50.65;;;25.92;;
27706;SDS011;36332;51.384;0.040;2024-03-06T00:42:11;48.08;;;24.02;;
27706;SDS011;36332;51.384;0.040;2024-03-06T00:44:40;45.03;;;25.48;;
27706;SDS011;36332;51.384;0.040;2024-03-06T00:47:08;49.88;;;25.23;;
27706;SDS011;36332;51.384;0.040;2024-03-06T00:49:35;46.70;;;24.50;;
27706;SDS011;36332;51.384;0.040;2024-03-06T00:52:05;43.88;;;25.60;;
27706;SDS011;36332;51.384;0.040;2024-03-06T00:54:33;53.75;;;26.42;;
27706;SDS011;36332;51.384;0.040;2024-03-06T00:57:01;48.10;;;25.58;;
27706;SDS011;36332;51.384;0.040;2024-03-06T00:59:29;49.15;;;25.02;;
27706;SDS011;36332;51.384;0.040;2024-03-06T01:01:56;47.97;;;26.83;;
27706;SDS011;36332;51.384;0.040;2024-03-06T01:04:24;54.30;;;25.98;;
27706;SDS011;36332;51.384;0.040;2024-03-06T01:06:52;52.65;;;25.83;;
27706;SDS011;36332;51.384;0.040;2024-03-06T01:09:20;47.95;;;24.80;;
27706;SDS011;36332;51.384;0.040;2024-03-06T01:11:48;52.70;;;25.92;;
27706;SDS011;36332;51.384;0.040;2024-03-06T01:14:16;46.55;;;25.00;;
27706;SDS011;36332;51.384;0.040;2024-03-06T01:16:44;46.10;;;24.17;;
27706;SDS011;36332;51.384;0.040;2024-03-06T01:19:11;44.22;;;24.50;;
27706;SDS011;36332;51.384;0.040;2024-03-06T01:21:39;49.40;;;24.92;;
27706;SDS011;36332;51.384;0.040;2024-03-06T01:24:08;47.35;;;25.20;;
27706;SDS011;36332;51.384;0.040;2024-03-06T01:26:35;56.55;;;26.55;;
27706;SDS011;36332;51.384;0.040;2024-03-06T01:29:03;46.60;;;24.70;;
27706;SDS011;36332;51.384;0.040;2024-03-06T01:31:30;50.30;;;25.70;;
27706;SDS011;36332;51.384;0.040;2024-03-06T01:33:58;42.75;;;24.38;;
27706;SDS011;36332;51.384;0.040;2024-03-06T01:36:26;49.47;;;24.42;;
27706;SDS011;36332;51.384;0.040;2024-03-06T01:38:53;55.53;;;25.73;;
27706;SDS011;36332;51.384;0.040;2024-03-06T01:41:23;46.00;;;22.63;;
27706;SDS011;36332;51.384;0.040;2024-03-06T01:43:52;45.10;;;23.33;;
27706;SDS011;36332;51.384;0.040;2024-03-06T01:46:19;45.08;;;23.35;;
27706;SDS011;36332;51.384;0.040;2024-03-06T01:48:47;51.22;;;22.90;;
27706;SDS011;36332;51.384;0.040;2024-03-06T01:51:14;52.50;;;21.92;;
27706;SDS011;36332;51.384;0.040;2024-03-06T01:53:42;44.35;;;21.02;;
27706;SDS011;36332;51.384;0.040;2024-03-06T01:56:10;44.63;;;22.98;;
27706;SDS011;36332;51.384;0.040;2024-03-06T01:58:41;49.30;;;22.52;;
27706;SDS011;36332;51.384;0.040;2024-03-06T02:01:09;73.05;;;24.42;;
27706;SDS011;36332;51.384;0.040;2024-03-06T02:03:37;39.92;;;20.77;;
27706;SDS011;36332;51.384;0.040;2024-03-06T02:06:05;47.33;;;22.23;;
27706;SDS011;36332;51.384;0.040;2024-03-06T02:08:34;42.22;;;20.60;;
27706;SDS011;36332;51.384;0.040;2024-03-06T02:11:02;44.30;;;21.98;;
27706;SDS011;36332;51.384;0.040;2024-03-06T02:13:30;43.22;;;22.10;;
27706;SDS011;36332;51.384;0.040;2024-03-06T02:15:57;46.40;;;22.27;;
27706;SDS011;36332;51.384;0.040;2024-03-06T02:18:25;49.30;;;22.52;;
27706;SDS011;36332;51.384;0.040;2024-03-06T02:20:53;54.13;;;24.58;;
27706;SDS011;36332;51.384;0.040;2024-03-06T02:23:22;45.53;;;23.40;;
27706;SDS011;36332;51.384;0.040;2024-03-06T02:25:50;52.17;;;25.17;;
27706;SDS011;36332;51.384;0.040;2024-03-06T02:28:18;48.47;;;24.33;;
27706;SDS011;36332;51.384;0.040;2024-03-06T02:30:49;46.67;;;24.23;;
27706;SDS011;36332;51.384;0.040;2024-03-06T02:33:17;45.22;;;22.75;;
27706;SDS011;36332;51.384;0.040;2024-03-06T02:35:45;50.03;;;22.98;;
27706;SDS011;36332;51.384;0.040;2024-03-06T02:38:13;55.10;;;25.52;;
27706;SDS011;36332;51.384;0.040;2024-03-06T02:40:43;48.22;;;23.45;;
27706;SDS011;36332;51.384;0.040;2024-03-06T02:43:11;43.17;;;22.55;;
27706;SDS011;36332;51.384;0.040;2024-03-06T02:45:39;49.03;;;25.08;;
27706;SDS011;36332;51.384;0.040;2024-03-06T02:48:06;49.97;;;24.85;;
27706;SDS011;36332;51.384;0.040;2024-03-06T02:50:35;46.83;;;23.40;;
27706;SDS011;36332;51.384;0.040;2024-03-06T02:53:02;46.33;;;25.30;;
27706;SDS011;36332;51.384;0.040;2024-03-06T02:55:30;49.13;;;24.02;;
27706;SDS011;36332;51.384;0.040;2024-03-06T02:58:00;56.58;;;24.90;;
27706;SDS011;36332;51.384;0.040;2024-03-06T03:00:29;54.30;;;24.10;;
27706;SDS011;36332;51.384;0.040;2024-03-06T03:02:58;49.63;;;26.10;;
27706;SDS011;36332;51.384;0.040;2024-03-06T03:05:27;49.60;;;24.90;;
27706;SDS011;36332;51.384;0.040;2024-03-06T03:07:54;49.28;;;23.85;;
27706;SDS011;36332;51.384;0.040;2024-03-06T03:10:22;51.67;;;26.40;;
27706;SDS011;36332;51.384;0.040;2024-03-06T03:12:51;53.83;;;26.23;;
27706;SDS011;36332;51.384;0.040;2024-03-06T03:15:21;55.55;;;25.98;;
27706;SDS011;36332;51.384;0.040;2024-03-06T03:17:49;56.47;;;26.77;;
27706;SDS011;36332;51.384;0.040;2024-03-06T03:20:17;54.15;;;30.58;;
27706;SDS011;36332;51.384;0.040;2024-03-06T03:22:45;61.15;;;27.90;;
27706;SDS011;36332;51.384;0.040;2024-03-06T03:25:13;53.78;;;28.48;;
27706;SDS011;36332;51.384;0.040;2024-03-06T03:27:41;55.50;;;27.88;;
27706;SDS011;36332;51.384;0.040;2024-03-06T03:30:10;54.47;;;27.55;;
27706;SDS011;36332;51.384;0.040;2024-03-06T03:32:39;54.10;;;26.52;;
27706;SDS011;36332;51.384;0.040;2024-03-06T03:35:07;54.47;;;27.48;;
27706;SDS011;36332;51.384;0.040;2024-03-06T03:37:35;50.22;;;26.63;;
27706;SDS011;36332;51.384;0.040;2024-03-06T03:40:03;51.85;;;26.23;;
27706;SDS011;36332;51.384;0.040;2024-03-06T03:42:31;54.60;;;27.40;;
27706;SDS011;36332;51.384;0.040;2024-03-06T03:44:58;52.35;;;26.30;;
27706;SDS011;36332;51.384;0.040;2024-03-06T03:47:26;52.88;;;28.15;;
27706;SDS011;36332;51.384;0.040;2024-03-06T03:49:54;51.92;;;26.77;;
27706;SDS011;36332;51.384;0.040;2024-03-06T03:52:37;53.17;;;26.25;;
27706;SDS011;36332;51.384;0.040;2024-03-06T03:55:09;57.40;;;27.27;;
27706;SDS011;36332;51.384;0.040;2024-03-06T03:57:37;58.38;;;28.23;;
27706;SDS011;36332;51.384;0.040;2024-03-06T04:00:04;50.78;;;27.75;;
27706;SDS011;36332;51.384;0.040;2024-03-06T04:02:39;58.05;;;27.10;;
27706;SDS011;36332;51.384;0.040;2024-03-06T04:05:06;52.72;;;27.05;;
27706;SDS011;36332;51.384;0.040;2024-03-06T04:07:38;49.72;;;26.50;;
27706;SDS011;36332;51.384;0.040;2024-03-06T04:10:07;60.58;;;28.60;;
27706;SDS011;36332;51.384;0.040;2024-03-06T04:12:39;61.90;;;30.88;;
27706;SDS011;36332;51.384;0.040;2024-03-06T04:15:10;69.25;;;33.28;;
27706;SDS011;36332;51.384;0.040;2024-03-06T04:17:39;68.30;;;32.00;;
27706;SDS011;36332;51.384;0.040;2024-03-06T04:20:08;63.33;;;29.33;;
27706;SDS011;36332;51.384;0.040;2024-03-06T04:22:39;69.97;;;32.63;;
27706;SDS011;36332;51.384;0.040;2024-03-06T04:25:07;66.60;;;32.75;;
27706;SDS011;36332;51.384;0.040;2024-03-06T04:27:36;69.05;;;32.10;;
27706;SDS011;36332;51.384;0.040;2024-03-06T04:30:05;71.78;;;32.35;;
27706;SDS011;36332;51.384;0.040;2024-03-06T04:32:33;66.60;;;34.03;;
27706;SDS011;36332;51.384;0.040;2024-03-06T04:35:01;78.70;;;31.90;;
27706;SDS011;36332;51.384;0.040;2024-03-06T04:37:29;76.90;;;32.72;;
27706;SDS011;36332;51.384;0.040;2024-03-06T04:39:57;72.75;;;31.60;;
27706;SDS011;36332;51.384;0.040;2024-03-06T04:42:25;72.05;;;33.97;;
27706;SDS011;36332;51.384;0.040;2024-03-06T04:44:54;70.82;;;32.13;;
27706;SDS011;36332;51.384;0.040;2024-03-06T04:47:23;81.25;;;34.70;;
27706;SDS011;36332;51.384;0.040;2024-03-06T04:49:56;70.40;;;33.40;;
27706;SDS011;36332;51.384;0.040;2024-03-06T04:52:25;76.20;;;34.65;;
27706;SDS011;36332;51.384;0.040;2024-03-06T04:54:53;67.72;;;32.63;;
27706;SDS011;36332;51.384;0.040;2024-03-06T04:57:21;68.85;;;32.53;;
27706;SDS011;36332;51.384;0.040;2024-03-06T04:59:48;64.70;;;31.42;;
27706;SDS011;36332;51.384;0.040;2024-03-06T05:02:16;68.15;;;33.40;;
27706;SDS011;36332;51.384;0.040;2024-03-06T05:04:44;73.93;;;32.80;;
27706;SDS011;36332;51.384;0.040;2024-03-06T05:07:29;78.82;;;33.97;;
27706;SDS011;36332;51.384;0.040;2024-03-06T05:10:16;71.53;;;34.13;;
27706;SDS011;36332;51.384;0.040;2024-03-06T05:13:02;71.38;;;31.38;;
27706;SDS011;36332;51.384;0.040;2024-03-06T05:15:48;71.03;;;31.95;;
27706;SDS011;36332;51.384;0.040;2024-03-06T05:18:33;71.47;;;33.75;;
27706;SDS011;36332;51.384;0.040;2024-03-06T05:21:19;77.68;;;32.42;;
27706;SDS011;36332;51.384;0.040;2024-03-06T05:24:08;71.97;;;32.83;;
27706;SDS011;36332;51.384;0.040;2024-03-06T05:26:53;72.65;;;32.80;;
27706;SDS011;36332;51.384;0.040;2024-03-06T05:29:39;70.28;;;31.52;;
27706;SDS011;36332;51.384;0.040;2024-03-06T05:32:24;77.10;;;33.90;;
27706;SDS011;36332;51.384;0.040;2024-03-06T05:35:09;73.72;;;34.03;;
27706;SDS011;36332;51.384;0.040;2024-03-06T05:37:54;78.45;;;33.53;;
27706;SDS011;36332;51.384;0.040;2024-03-06T05:40:39;82.65;;;34.88;;
27706;SDS011;36332;51.384;0.040;2024-03-06T05:43:28;75.22;;;33.00;;
27706;SDS011;36332;51.384;0.040;2024-03-06T05:46:14;83.43;;;33.47;;
27706;SDS011;36332;51.384;0.040;2024-03-06T05:49:00;57.10;;;26.50;;
27706;SDS011;36332;51.384;0.040;2024-03-06T05:51:45;69.78;;;33.30;;
27706;SDS011;36332;51.384;0.040;2024-03-06T05:54:30;68.10;;;31.67;;
27706;SDS011;36332;51.384;0.040;2024-03-06T05:57:18;85.22;;;36.03;;
27706;SDS011;36332;51.384;0.040;2024-03-06T06:00:03;77.18;;;35.42;;
27706;SDS011;36332;51.384;0.040;2024-03-06T06:02:37;74.97;;;34.00;;
27706;SDS011;36332;51.384;0.040;2024-03-06T06:05:05;74.43;;;33.90;;
27706;SDS011;36332;51.384;0.040;2024-03-06T06:07:50;85.75;;;36.40;;
27706;SDS011;36332;51.384;0.040;2024-03-06T06:10:18;82.22;;;36.55;;
27706;SDS011;36332;51.384;0.040;2024-03-06T06:12:48;80.00;;;35.38;;
27706;SDS011;36332;51.384;0.040;2024-03-06T06:15:16;87.40;;;35.65;;
27706;SDS011;36332;51.384;0.040;2024-03-06T06:17:44;90.40;;;38.97;;
27706;SDS011;36332;51.384;0.040;2024-03-06T06:20:13;90.75;;;38.58;;
27706;SDS011;36332;51.384;0.040;2024-03-06T06:22:44;90.38;;;37.85;;
27706;SDS011;36332;51.384;0.040;2024-03-06T06:25:12;86.97;;;40.40;;
27706;SDS011;36332;51.384;0.040;2024-03-06T06:27:40;87.45;;;36.55;;
27706;SDS011;36332;51.384;0.040;2024-03-06T06:30:07;87.07;;;37.83;;
27706;SDS011;36332;51.384;0.040;2024-03-06T06:32:41;100.07;;;41.25;;
27706;SDS011;36332;51.384;0.040;2024-03-06T06:35:10;85.95;;;38.10;;
27706;SDS011;36332;51.384;0.040;2024-03-06T06:37:40;94.90;;;40.15;;
27706;SDS011;36332;51.384;0.040;2024-03-06T06:40:10;95.07;;;40.00;;
27706;SDS011;36332;51.384;0.040;2024-03-06T06:42:44;97.78;;;39.08;;
27706;SDS011;36332;51.384;0.040;2024-03-06T06:45:18;92.38;;;39.13;;
27706;SDS011;36332;51.384;0.040;2024-03-06T06:47:47;88.75;;;37.88;;
27706;SDS011;36332;51.384;0.040;2024-03-06T06:50:16;95.78;;;42.00;;
27706;SDS011;36332;51.384;0.040;2024-03-06T06:52:44;112.72;;;45.50;;
27706;SDS011;36332;51.384;0.040;2024-03-06T06:55:12;106.95;;;39.10;;
27706;SDS011;36332;51.384;0.040;2024-03-06T06:57:39;95.70;;;39.35;;
27706;SDS011;36332;51.384;0.040;2024-03-06T07:00:07;100.20;;;41.25;;
27706;SDS011;36332;51.384;0.040;2024-03-06T07:02:38;100.35;;;39.75;;
27706;SDS011;36332;51.384;0.040;2024-03-06T07:05:09;109.78;;;46.92;;
27706;SDS011;36332;51.384;0.040;2024-03-06T07:07:39;98.68;;;40.25;;
27706;SDS011;36332;51.384;0.040;2024-03-06T07:10:07;96.18;;;42.38;;
27706;SDS011;36332;51.384;0.040;2024-03-06T07:12:35;107.93;;;42.03;;
27706;SDS011;36332;51.384;0.040;2024-03-06T07:15:04;109.75;;;43.30;;
27706;SDS011;36332;51.384;0.040;2024-03-06T07:17:32;110.25;;;44.55;;
27706;SDS011;36332;51.384;0.040;2024-03-06T07:20:00;104.38;;;44.55;;
27706;SDS011;36332;51.384;0.040;2024-03-06T07:22:28;98.78;;;43.17;;
27706;SDS011;36332;51.384;0.040;2024-03-06T07:24:55;90.38;;;40.22;;
27706;SDS011;36332;51.384;0.040;2024-03-06T07:27:23;96.32;;;41.35;;
27706;SDS011;36332;51.384;0.040;2024-03-06T07:29:52;109.35;;;43.92;;
27706;SDS011;36332;51.384;0.040;2024-03-06T07:32:20;94.07;;;40.28;;
27706;SDS011;36332;51.384;0.040;2024-03-06T07:34:49;108.10;;;44.83;;
27706;SDS011;36332;51.384;0.040;2024-03-06T07:37:17;108.18;;;42.70;;
27706;SDS011;36332;51.384;0.040;2024-03-06T07:39:44;99.57;;;41.50;;
27706;SDS011;36332;51.384;0.040;2024-03-06T07:42:14;108.03;;;43.58;;
27706;SDS011;36332;51.384;0.040;2024-03-06T07:44:43;102.18;;;43.15;;
27706;SDS011;36332;51.384;0.040;2024-03-06T07:47:11;98.57;;;42.90;;
27706;SDS011;36332;51.384;0.040;2024-03-06T07:49:41;108.68;;;43.55;;
27706;SDS011;36332;51.384;0.040;2024-03-06T07:52:11;112.95;;;45.20;;
27706;SDS011;36332;51.384;0.040;2024-03-06T07:54:39;107.75;;;44.88;;
27706;SDS011;36332;51.384;0.040;2024-03-06T07:57:07;109.25;;;42.15;;
27706;SDS011;36332;51.384;0.040;2024-03-06T07:59:37;115.22;;;45.92;;
27706;SDS011;36332;51.384;0.040;2024-03-06T08:02:05;128.77;;;45.10;;
27706;SDS011;36332;51.384;0.040;2024-03-06T08:04:33;105.75;;;43.72;;
27706;SDS011;36332;51.384;0.040;2024-03-06T08:07:02;107.13;;;44.35;;
27706;SDS011;36332;51.384;0.040;2024-03-06T08:09:30;113.15;;;44.30;;
27706;SDS011;36332;51.384;0.040;2024-03-06T08:11:58;123.18;;;48.17;;
27706;SDS011;36332;51.384;0.040;2024-03-06T08:14:26;141.27;;;50.65;;
27706;SDS011;36332;51.384;0.040;2024-03-06T08:16:54;136.80;;;49.47;;
27706;SDS011;36332;51.384;0.040;2024-03-06T08:19:22;135.80;;;47.33;;
27706;SDS011;36332;51.384;0.040;2024-03-06T08:21:52;122.15;;;46.42;;
27706;SDS011;36332;51.384;0.040;2024-03-06T08:24:21;119.18;;;45.60;;
27706;SDS011;36332;51.384;0.040;2024-03-06T08:26:49;125.68;;;44.95;;
27706;SDS011;36332;51.384;0.040;2024-03-06T08:29:17;139.93;;;48.22;;
27706;SDS011;36332;51.384;0.040;2024-03-06T08:31:45;126.32;;;46.58;;
27706;SDS011;36332;51.384;0.040;2024-03-06T08:34:12;134.00;;;46.97;;
27706;SDS011;36332;51.384;0.040;2024-03-06T08:36:40;130.23;;;47.78;;
27706;SDS011;36332;51.384;0.040;2024-03-06T08:39:09;120.03;;;45.67;;
27706;SDS011;36332;51.384;0.040;2024-03-06T08:41:40;119.82;;;45.28;;
27706;SDS011;36332;51.384;0.040;2024-03-06T08:44:09;121.43;;;45.53;;
27706;SDS011;36332;51.384;0.040;2024-03-06T08:46:37;115.80;;;43.45;;
27706;SDS011;36332;51.384;0.040;2024-03-06T08:49:04;131.32;;;48.05;;
27706;SDS011;36332;51.384;0.040;2024-03-06T08:51:36;119.90;;;44.83;;
27706;SDS011;36332;51.384;0.040;2024-03-06T08:54:04;112.97;;;43.50;;
27706;SDS011;36332;51.384;0.040;2024-03-06T08:56:31;114.10;;;45.35;;
27706;SDS011;36332;51.384;0.040;2024-03-06T08:59:01;110.82;;;42.97;;
27706;SDS011;36332;51.384;0.040;2024-03-06T09:01:30;118.30;;;46.83;;
27706;SDS011;36332;51.384;0.040;2024-03-06T09:03:58;109.38;;;40.40;;
27706;SDS011;36332;51.384;0.040;2024-03-06T09:06:26;97.90;;;37.95;;
27706;SDS011;36332;51.384;0.040;2024-03-06T09:08:55;95.60;;;38.83;;
27706;SDS011;36332;51.384;0.040;2024-03-06T09:11:27;79.03;;;34.65;;
27706;SDS011;36332;51.384;0.040;2024-03-06T09:13:55;76.47;;;31.88;;
27706;SDS011;36332;51.384;0.040;2024-03-06T09:16:24;63.50;;;30.55;;
27706;SDS011;36332;51.384;0.040;2024-03-06T09:18:52;73.70;;;33.20;;
27706;SDS011;36332;51.384;0.040;2024-03-06T09:21:20;69.63;;;32.25;;
27706;SDS011;36332;51.384;0.040;2024-03-06T09:23:53;66.95;;;32.80;;
27706;SDS011;36332;51.384;0.040;2024-03-06T09:26:22;64.95;;;33.20;;
27706;SDS011;36332;51.384;0.040;2024-03-06T09:28:50;71.72;;;32.53;;
27706;SDS011;36332;51.384;0.040;2024-03-06T09:31:17;75.28;;;33.80;;
27706;SDS011;36332;51.384;0.040;2024-03-06T09:33:47;66.43;;;32.08;;
27706;SDS011;36332;51.384;0.040;2024-03-06T09:36:16;68.53;;;32.13;;
27706;SDS011;36332;51.384;0.040;2024-03-06T09:38:44;76.57;;;31.52;;
27706;SDS011;36332;51.384;0.040;2024-03-06T09:41:12;74.05;;;34.25;;
27706;SDS011;36332;51.384;0.040;2024-03-06T09:43:40;84.25;;;35.50;;
27706;SDS011;36332;51.384;0.040;2024-03-06T09:46:12;91.70;;;37.45;;
27706;SDS011;36332;51.384;0.040;2024-03-06T09:48:46;82.45;;;36.72;;
27706;SDS011;36332;51.384;0.040;2024-03-06T09:51:15;87.65;;;35.80;;
27706;SDS011;36332;51.384;0.040;2024-03-06T09:53:43;95.22;;;37.03;;
27706;SDS011;36332;51.384;0.040;2024-03-06T09:56:12;82.10;;;33.97;;
27706;SDS011;36332;51.384;0.040;2024-03-06T09:58:40;84.22;;;37.20;;
27706;SDS011;36332;51.384;0.040;2024-03-06T10:04:35;84.80;;;33.97;;
27706;SDS011;36332;51.384;0.040;2024-03-06T10:17:02;69.43;;;30.88;;
27706;SDS011;36332;51.384;0.040;2024-03-06T10:19:32;71.28;;;30.83;;
27706;SDS011;36332;51.384;0.040;2024-03-06T10:22:01;71.63;;;31.48;;
27706;SDS011;36332;51.384;0.040;2024-03-06T10:24:29;72.72;;;31.75;;
27706;SDS011;36332;51.384;0.040;2024-03-06T10:26:58;72.35;;;33.20;;
27706;SDS011;36332;51.384;0.040;2024-03-06T10:29:27;73.80;;;32.83;;
27706;SDS011;36332;51.384;0.040;2024-03-06T10:31:59;67.03;;;30.55;;
27706;SDS011;36332;51.384;0.040;2024-03-06T10:34:27;66.80;;;32.60;;
27706;SDS011;36332;51.384;0.040;2024-03-06T10:36:57;75.35;;;32.13;;
27706;SDS011;36332;51.384;0.040;2024-03-06T10:39:27;71.15;;;32.00;;
27706;SDS011;36332;51.384;0.040;2024-03-06T10:41:57;63.92;;;28.88;;
27706;SDS011;36332;51.384;0.040;2024-03-06T10:44:27;72.30;;;31.67;;
27706;SDS011;36332;51.384;0.040;2024-03-06T10:46:59;67.65;;;31.23;;
27706;SDS011;36332;51.384;0.040;2024-03-06T10:49:29;76.65;;;35.05;;
27706;SDS011;36332;51.384;0.040;2024-03-06T10:51:58;67.38;;;30.67;;
27706;SDS011;36332;51.384;0.040;2024-03-06T10:54:28;58.60;;;28.52;;
27706;SDS011;36332;51.384;0.040;2024-03-06T10:56:57;61.78;;;28.88;;
27706;SDS011;36332;51.384;0.040;2024-03-06T11:10:15;51.63;;;26.77;;
27706;SDS011;36332;51.384;0.040;2024-03-06T11:12:57;59.72;;;26.63;;
27706;SDS011;36332;51.384;0.040;2024-03-06T11:15:27;62.13;;;31.08;;
27706;SDS011;36332;51.384;0.040;2024-03-06T11:17:54;60.90;;;28.48;;
27706;SDS011;36332;51.384;0.040;2024-03-06T11:20:22;57.13;;;27.33;;
27706;SDS011;36332;51.384;0.040;2024-03-06T11:28:29;57.17;;;26.00;;
27706;SDS011;36332;51.384;0.040;2024-03-06T11:40:15;53.72;;;25.35;;
27706;SDS011;36332;51.384;0.040;2024-03-06T11:42:43;47.28;;;24.23;;
27706;SDS011;36332;51.384;0.040;2024-03-06T11:45:16;52.40;;;23.80;;
27706;SDS011;36332;51.384;0.040;2024-03-06T11:48:01;55.35;;;26.23;;
27706;SDS011;36332;51.384;0.040;2024-03-06T11:50:30;51.30;;;25.63;;
27706;SDS011;36332;51.384;0.040;2024-03-06T11:53:02;53.92;;;27.05;;
27706;SDS011;36332;51.384;0.040;2024-03-06T11:55:34;55.50;;;28.15;;
27706;SDS011;36332;51.384;0.040;2024-03-06T11:58:01;57.88;;;27.15;;
27706;SDS011;36332;51.384;0.040;2024-03-06T12:00:30;45.17;;;24.05;;
27706;SDS011;36332;51.384;0.040;2024-03-06T12:02:58;47.60;;;23.08;;
27706;SDS011;36332;51.384;0.040;2024-03-06T12:05:25;41.92;;;21.52;;
27706;SDS011;36332;51.384;0.040;2024-03-06T12:07:54;47.92;;;23.38;;
27706;SDS011;36332;51.384;0.040;2024-03-06T12:10:23;39.35;;;21.52;;
27706;SDS011;36332;51.384;0.040;2024-03-06T12:12:51;41.47;;;21.40;;
27706;SDS011;36332;51.384;0.040;2024-03-06T12:15:18;47.72;;;22.98;;
27706;SDS011;36332;51.384;0.040;2024-03-06T12:17:47;54.10;;;23.98;;
27706;SDS011;36332;51.384;0.040;2024-03-06T12:20:19;49.97;;;24.58;;
27706;SDS011;36332;51.384;0.040;2024-03-06T12:25:22;34.03;;;19.63;;
27706;SDS011;36332;51.384;0.040;2024-03-06T12:27:51;40.22;;;21.77;;
27706;SDS011;36332;51.384;0.040;2024-03-06T12:30:21;37.00;;;19.45;;
27706;SDS011;36332;51.384;0.040;2024-03-06T12:32:56;36.85;;;19.95;;
27706;SDS011;36332;51.384;0.040;2024-03-06T12:35:28;37.63;;;21.15;;
27706;SDS011;36332;51.384;0.040;2024-03-06T12:37:56;30.23;;;19.27;;
27706;SDS011;36332;51.384;0.040;2024-03-06T12:40:24;39.08;;;20.00;;
27706;SDS011;36332;51.384;0.040;2024-03-06T12:42:52;31.70;;;17.98;;
27706;SDS011;36332;51.384;0.040;2024-03-06T12:45:20;32.45;;;16.10;;
27706;SDS011;36332;51.384;0.040;2024-03-06T12:47:48;25.95;;;16.50;;
27706;SDS011;36332;51.384;0.040;2024-03-06T12:50:17;31.02;;;15.88;;
27706;SDS011;36332;51.384;0.040;2024-03-06T12:52:45;24.58;;;14.18;;
27706;SDS011;36332;51.384;0.040;2024-03-06T12:55:13;21.77;;;13.60;;
27706;SDS011;36332;51.384;0.040;2024-03-06T12:57:41;21.83;;;12.55;;
27706;SDS011;36332;51.384;0.040;2024-03-06T13:00:09;20.80;;;13.90;;
27706;SDS011;36332;51.384;0.040;2024-03-06T13:02:43;18.70;;;12.77;;
27706;SDS011;36332;51.384;0.040;2024-03-06T13:05:12;21.52;;;13.75;;
27706;SDS011;36332;51.384;0.040;2024-03-06T13:07:41;25.10;;;15.85;;
27706;SDS011;36332;51.384;0.040;2024-03-06T13:10:10;27.40;;;14.85;;
27706;SDS011;36332;51.384;0.040;2024-03-06T13:12:38;20.17;;;14.15;;
27706;SDS011;36332;51.384;0.040;2024-03-06T13:15:06;21.20;;;15.02;;
27706;SDS011;36332;51.384;0.040;2024-03-06T13:17:35;24.65;;;15.93;;
27706;SDS011;36332;51.384;0.040;2024-03-06T13:20:03;32.65;;;20.05;;
27706;SDS011;36332;51.384;0.040;2024-03-06T13:22:32;36.67;;;21.15;;
27706;SDS011;36332;51.384;0.040;2024-03-06T13:25:00;39.75;;;22.58;;
27706;SDS011;36332;51.384;0.040;2024-03-06T13:27:27;44.55;;;24.52;;
27706;SDS011;36332;51.384;0.040;2024-03-06T13:29:55;40.15;;;22.63;;
27706;SDS011;36332;51.384;0.040;2024-03-06T13:32:23;44.45;;;23.38;;
27706;SDS011;36332;51.384;0.040;2024-03-06T13:34:51;41.70;;;22.38;;
27706;SDS011;36332;51.384;0.040;2024-03-06T13:37:18;39.88;;;21.98;;
27706;SDS011;36332;51.384;0.040;2024-03-06T13:39:50;46.05;;;22.83;;
27706;SDS011;36332;51.384;0.040;2024-03-06T13:42:18;36.10;;;21.33;;
27706;SDS011;36332;51.384;0.040;2024-03-06T13:44:45;39.33;;;22.02;;
27706;SDS011;36332;51.384;0.040;2024-03-06T13:47:14;45.08;;;24.42;;
27706;SDS011;36332;51.384;0.040;2024-03-06T13:49:44;40.72;;;22.75;;
27706;SDS011;36332;51.384;0.040;2024-03-06T13:52:11;39.50;;;21.33;;
27706;SDS011;36332;51.384;0.040;2024-03-06T13:54:41;38.83;;;22.13;;
27706;SDS011;36332;51.384;0.040;2024-03-06T13:57:09;40.50;;;22.52;;
27706;SDS011;36332;51.384;0.040;2024-03-06T13:59:37;44.13;;;23.55;;
27706;SDS011;36332;51.384;0.040;2024-03-06T14:02:06;47.90;;;25.10;;
27706;SDS011;36332;51.384;0.040;2024-03-06T14:04:36;41.92;;;22.50;;
27706;SDS011;36332;51.384;0.040;2024-03-06T14:07:03;38.33;;;21.73;;
27706;SDS011;36332;51.384;0.040;2024-03-06T14:09:32;57.63;;;23.42;;
27706;SDS011;36332;51.384;0.040;2024-03-06T14:11:59;29.27;;;17.80;;
27706;SDS011;36332;51.384;0.040;2024-03-06T14:14:27;30.88;;;18.58;;
27706;SDS011;36332;51.384;0.040;2024-03-06T14:16:56;34.72;;;19.02;;
27706;SDS011;36332;51.384;0.040;2024-03-06T14:19:23;34.28;;;17.63;;
27706;SDS011;36332;51.384;0.040;2024-03-06T14:21:51;22.52;;;11.85;;
27706;SDS011;36332;51.384;0.040;2024-03-06T14:24:19;22.77;;;11.65;;
27706;SDS011;36332;51.384;0.040;2024-03-06T14:26:47;21.90;;;11.57;;
27706;SDS011;36332;51.384;0.040;2024-03-06T14:29:16;22.30;;;11.63;;
27706;SDS011;36332;51.384;0.040;2024-03-06T14:31:44;23.77;;;10.82;;
27706;SDS011;36332;51.384;0.040;2024-03-06T14:34:12;17.80;;;10.75;;
27706;SDS011;36332;51.384;0.040;2024-03-06T14:36:40;19.50;;;11.70;;
27706;SDS011;36332;51.384;0.040;2024-03-06T14:39:09;20.02;;;11.95;;
27706;SDS011;36332;51.384;0.040;2024-03-06T14:42:45;29.03;;;13.20;;
27706;SDS011;36332;51.384;0.040;2024-03-06T14:45:14;25.70;;;14.93;;
27706;SDS011;36332;51.384;0.040;2024-03-06T14:47:42;24.25;;;14.23;;
27706;SDS011;36332;51.384;0.040;2024-03-06T14:50:10;27.63;;;14.65;;
27706;SDS011;36332;51.384;0.040;2024-03-06T14:52:38;24.00;;;12.82;;
27706;SDS011;36332;51.384;0.040;2024-03-06T14:55:06;24.63;;;13.80;;
27706;SDS011;36332;51.384;0.040;2024-03-06T14:57:36;21.00;;;13.52;;
27706;SDS011;36332;51.384;0.040;2024-03-06T15:00:04;21.95;;;12.73;;
27706;SDS011;36332;51.384;0.040;2024-03-06T15:02:35;26.05;;;14.57;;
27706;SDS011;36332;51.384;0.040;2024-03-06T15:05:03;24.63;;;15.70;;
27706;SDS011;36332;51.384;0.040;2024-03-06T15:07:31;25.48;;;14.02;;
27706;SDS011;36332;51.384;0.040;2024-03-06T15:10:00;25.63;;;14.68;;
27706;SDS011;36332;51.384;0.040;2024-03-06T15:12:27;19.80;;;12.77;;
27706;SDS011;36332;51.384;0.040;2024-03-06T15:14:56;19.38;;;11.45;;
27706;SDS011;36332;51.384;0.040;2024-03-06T15:17:25;27.30;;;14.48;;